Terminal Aerodrome Forecast
Issued by NWS Indianapolis, IN

Home | Current Version | Previous Version | Text Only | Print | Product List | Glossary On
Versions: 1 2 3 4 5 6 7 8 9 10 11 12 13 14 15 16 17 18 19 20 21 22 23 24 25
000
FTUS43 KIND 251100
TAFIND
TAF
KIND 251120Z 2512/2618 10012KT P6SM VCSH OVC035
     FM251500 10012KT 4SM -RA OVC015
     FM252100 06010KT 4SM BR VCSH OVC010
     FM260000 06013KT 5SM BR VCSH OVC008
     FM260400 04012KT P6SM OVC016
     FM261100 02008KT P6SM SCT020
     FM261400 03012KT P6SM SCT250=

USA.gov is the U.S. government's official web portal to all federal, state and local government web resources and services.